sensor_id;sensor_type;location;lat;lon;timestamp;P1;durP1;ratioP1;P2;durP2;ratioP2
12228;SDS011;6177;52.402;9.800;2023-08-01T00:01:29;0.40;;;0.40;;
12228;SDS011;6177;52.402;9.800;2023-08-01T00:03:55;0.70;;;0.70;;
12228;SDS011;6177;52.402;9.800;2023-08-01T00:06:20;0.43;;;0.43;;
12228;SDS011;6177;52.402;9.800;2023-08-01T00:08:47;0.63;;;0.60;;
12228;SDS011;6177;52.402;9.800;2023-08-01T00:11:13;0.47;;;0.47;;
12228;SDS011;6177;52.402;9.800;2023-08-01T00:13:39;1.00;;;0.90;;
12228;SDS011;6177;52.402;9.800;2023-08-01T00:16:06;0.60;;;0.60;;
12228;SDS011;6177;52.402;9.800;2023-08-01T00:18:31;0.57;;;0.57;;
12228;SDS011;6177;52.402;9.800;2023-08-01T00:20:57;0.50;;;0.50;;
12228;SDS011;6177;52.402;9.800;2023-08-01T00:23:23;0.50;;;0.50;;
12228;SDS011;6177;52.402;9.800;2023-08-01T00:25:49;0.82;;;0.80;;
12228;SDS011;6177;52.402;9.800;2023-08-01T00:28:21;0.70;;;0.70;;
12228;SDS011;6177;52.402;9.800;2023-08-01T00:30:47;0.57;;;0.57;;
12228;SDS011;6177;52.402;9.800;2023-08-01T00:33:12;0.73;;;0.73;;
12228;SDS011;6177;52.402;9.800;2023-08-01T00:35:39;1.38;;;0.70;;
12228;SDS011;6177;52.402;9.800;2023-08-01T00:38:05;1.95;;;0.68;;
12228;SDS011;6177;52.402;9.800;2023-08-01T00:40:31;1.30;;;0.80;;
12228;SDS011;6177;52.402;9.800;2023-08-01T00:42:56;1.60;;;1.00;;
12228;SDS011;6177;52.402;9.800;2023-08-01T00:45:22;0.80;;;0.80;;
12228;SDS011;6177;52.402;9.800;2023-08-01T00:47:50;1.00;;;1.00;;
12228;SDS011;6177;52.402;9.800;2023-08-01T00:50:16;1.30;;;0.77;;
12228;SDS011;6177;52.402;9.800;2023-08-01T00:52:46;1.48;;;0.88;;
12228;SDS011;6177;52.402;9.800;2023-08-01T00:55:12;0.88;;;0.88;;
12228;SDS011;6177;52.402;9.800;2023-08-01T00:57:37;2.78;;;0.98;;
12228;SDS011;6177;52.402;9.800;2023-08-01T01:00:03;1.77;;;0.98;;
12228;SDS011;6177;52.402;9.800;2023-08-01T01:02:29;0.90;;;0.90;;
12228;SDS011;6177;52.402;9.800;2023-08-01T01:04:55;1.75;;;1.00;;
12228;SDS011;6177;52.402;9.800;2023-08-01T01:07:20;3.58;;;0.90;;
12228;SDS011;6177;52.402;9.800;2023-08-01T01:09:47;1.00;;;1.00;;
12228;SDS011;6177;52.402;9.800;2023-08-01T01:12:12;1.00;;;1.00;;
12228;SDS011;6177;52.402;9.800;2023-08-01T01:14:38;1.05;;;1.05;;
12228;SDS011;6177;52.402;9.800;2023-08-01T01:17:03;0.90;;;0.90;;
12228;SDS011;6177;52.402;9.800;2023-08-01T01:19:29;0.95;;;0.95;;
12228;SDS011;6177;52.402;9.800;2023-08-01T01:21:55;1.45;;;1.08;;
12228;SDS011;6177;52.402;9.800;2023-08-01T01:24:21;2.22;;;1.08;;
12228;SDS011;6177;52.402;9.800;2023-08-01T01:26:47;0.82;;;0.82;;
12228;SDS011;6177;52.402;9.800;2023-08-01T01:29:13;0.85;;;0.85;;
12228;SDS011;6177;52.402;9.800;2023-08-01T01:31:39;1.10;;;1.00;;
12228;SDS011;6177;52.402;9.800;2023-08-01T01:34:05;0.85;;;0.85;;
12228;SDS011;6177;52.402;9.800;2023-08-01T01:36:30;0.68;;;0.68;;
12228;SDS011;6177;52.402;9.800;2023-08-01T01:38:56;0.80;;;0.80;;
12228;SDS011;6177;52.402;9.800;2023-08-01T01:41:22;1.30;;;0.90;;
12228;SDS011;6177;52.402;9.800;2023-08-01T01:43:48;1.00;;;1.00;;
12228;SDS011;6177;52.402;9.800;2023-08-01T01:46:13;0.70;;;0.70;;
12228;SDS011;6177;52.402;9.800;2023-08-01T01:48:39;1.45;;;0.77;;
12228;SDS011;6177;52.402;9.800;2023-08-01T01:51:05;1.52;;;0.90;;
12228;SDS011;6177;52.402;9.800;2023-08-01T01:53:30;0.95;;;0.52;;
12228;SDS011;6177;52.402;9.800;2023-08-01T01:55:56;1.17;;;0.70;;
12228;SDS011;6177;52.402;9.800;2023-08-01T01:58:21;0.70;;;0.70;;
12228;SDS011;6177;52.402;9.800;2023-08-01T02:00:48;1.00;;;0.85;;
12228;SDS011;6177;52.402;9.800;2023-08-01T02:03:14;0.80;;;0.80;;
12228;SDS011;6177;52.402;9.800;2023-08-01T02:05:39;0.85;;;0.85;;
12228;SDS011;6177;52.402;9.800;2023-08-01T02:08:06;0.60;;;0.60;;
12228;SDS011;6177;52.402;9.800;2023-08-01T02:10:31;0.80;;;0.80;;
12228;SDS011;6177;52.402;9.800;2023-08-01T02:12:57;1.42;;;0.70;;
12228;SDS011;6177;52.402;9.800;2023-08-01T02:15:23;0.70;;;0.70;;
12228;SDS011;6177;52.402;9.800;2023-08-01T02:17:49;0.80;;;0.80;;
12228;SDS011;6177;52.402;9.800;2023-08-01T02:20:15;0.52;;;0.52;;
12228;SDS011;6177;52.402;9.800;2023-08-01T02:22:40;0.80;;;0.80;;
12228;SDS011;6177;52.402;9.800;2023-08-01T02:25:06;0.70;;;0.70;;
12228;SDS011;6177;52.402;9.800;2023-08-01T02:27:31;5.50;;;0.90;;
12228;SDS011;6177;52.402;9.800;2023-08-01T02:29:57;0.80;;;0.80;;
12228;SDS011;6177;52.402;9.800;2023-08-01T02:32:22;0.68;;;0.68;;
12228;SDS011;6177;52.402;9.800;2023-08-01T02:34:48;2.50;;;0.70;;
12228;SDS011;6177;52.402;9.800;2023-08-01T02:37:13;1.17;;;0.50;;
12228;SDS011;6177;52.402;9.800;2023-08-01T02:39:39;0.90;;;0.60;;
12228;SDS011;6177;52.402;9.800;2023-08-01T02:42:04;1.50;;;0.85;;
12228;SDS011;6177;52.402;9.800;2023-08-01T02:44:30;0.65;;;0.60;;
12228;SDS011;6177;52.402;9.800;2023-08-01T02:46:55;0.60;;;0.60;;
12228;SDS011;6177;52.402;9.800;2023-08-01T02:49:21;1.27;;;0.50;;
12228;SDS011;6177;52.402;9.800;2023-08-01T02:51:46;4.32;;;0.70;;
12228;SDS011;6177;52.402;9.800;2023-08-01T02:54:12;0.65;;;0.65;;
12228;SDS011;6177;52.402;9.800;2023-08-01T02:56:37;4.07;;;0.70;;
12228;SDS011;6177;52.402;9.800;2023-08-01T02:59:09;1.33;;;0.60;;
12228;SDS011;6177;52.402;9.800;2023-08-01T03:01:35;0.60;;;0.60;;
12228;SDS011;6177;52.402;9.800;2023-08-01T03:04:04;1.13;;;0.43;;
12228;SDS011;6177;52.402;9.800;2023-08-01T03:06:34;0.55;;;0.55;;
12228;SDS011;6177;52.402;9.800;2023-08-01T03:09:00;1.38;;;0.60;;
12228;SDS011;6177;52.402;9.800;2023-08-01T03:11:25;1.40;;;0.55;;
12228;SDS011;6177;52.402;9.800;2023-08-01T03:13:51;0.75;;;0.63;;
12228;SDS011;6177;52.402;9.800;2023-08-01T03:16:17;0.63;;;0.55;;
12228;SDS011;6177;52.402;9.800;2023-08-01T03:18:43;0.55;;;0.55;;
12228;SDS011;6177;52.402;9.800;2023-08-01T03:21:08;0.50;;;0.50;;
12228;SDS011;6177;52.402;9.800;2023-08-01T03:23:34;0.77;;;0.77;;
12228;SDS011;6177;52.402;9.800;2023-08-01T03:26:00;0.57;;;0.57;;
12228;SDS011;6177;52.402;9.800;2023-08-01T03:28:26;0.80;;;0.80;;
12228;SDS011;6177;52.402;9.800;2023-08-01T03:30:52;1.70;;;0.60;;
12228;SDS011;6177;52.402;9.800;2023-08-01T03:33:19;1.20;;;0.63;;
12228;SDS011;6177;52.402;9.800;2023-08-01T03:35:45;0.63;;;0.63;;
12228;SDS011;6177;52.402;9.800;2023-08-01T03:38:11;0.95;;;0.60;;
12228;SDS011;6177;52.402;9.800;2023-08-01T03:40:37;0.85;;;0.50;;
12228;SDS011;6177;52.402;9.800;2023-08-01T03:43:02;0.50;;;0.50;;
12228;SDS011;6177;52.402;9.800;2023-08-01T03:45:28;1.83;;;0.60;;
12228;SDS011;6177;52.402;9.800;2023-08-01T03:47:54;0.45;;;0.30;;
12228;SDS011;6177;52.402;9.800;2023-08-01T03:50:20;0.60;;;0.60;;
12228;SDS011;6177;52.402;9.800;2023-08-01T03:52:48;0.57;;;0.57;;
12228;SDS011;6177;52.402;9.800;2023-08-01T03:55:14;1.17;;;0.52;;
12228;SDS011;6177;52.402;9.800;2023-08-01T03:57:41;0.65;;;0.47;;
12228;SDS011;6177;52.402;9.800;2023-08-01T04:00:08;0.50;;;0.50;;
12228;SDS011;6177;52.402;9.800;2023-08-01T04:02:41;0.93;;;0.50;;
12228;SDS011;6177;52.402;9.800;2023-08-01T04:05:07;2.63;;;0.55;;
12228;SDS011;6177;52.402;9.800;2023-08-01T04:07:37;0.75;;;0.55;;
12228;SDS011;6177;52.402;9.800;2023-08-01T04:10:03;1.02;;;0.55;;
12228;SDS011;6177;52.402;9.800;2023-08-01T04:12:30;0.35;;;0.30;;
12228;SDS011;6177;52.402;9.800;2023-08-01T04:14:58;0.50;;;0.30;;
12228;SDS011;6177;52.402;9.800;2023-08-01T04:17:24;0.35;;;0.35;;
12228;SDS011;6177;52.402;9.800;2023-08-01T04:19:49;0.55;;;0.50;;
12228;SDS011;6177;52.402;9.800;2023-08-01T04:22:15;0.32;;;0.30;;
12228;SDS011;6177;52.402;9.800;2023-08-01T04:24:41;1.85;;;0.30;;
12228;SDS011;6177;52.402;9.800;2023-08-01T04:27:06;0.32;;;0.30;;
12228;SDS011;6177;52.402;9.800;2023-08-01T04:29:32;0.52;;;0.30;;
12228;SDS011;6177;52.402;9.800;2023-08-01T04:31:57;1.77;;;0.50;;
12228;SDS011;6177;52.402;9.800;2023-08-01T04:34:23;0.40;;;0.40;;
12228;SDS011;6177;52.402;9.800;2023-08-01T04:36:49;1.27;;;0.47;;
12228;SDS011;6177;52.402;9.800;2023-08-01T04:39:15;0.73;;;0.50;;
12228;SDS011;6177;52.402;9.800;2023-08-01T04:41:40;1.25;;;0.30;;
12228;SDS011;6177;52.402;9.800;2023-08-01T04:44:06;0.40;;;0.40;;
12228;SDS011;6177;52.402;9.800;2023-08-01T04:46:31;1.10;;;0.60;;
12228;SDS011;6177;52.402;9.800;2023-08-01T04:48:57;1.00;;;0.47;;
12228;SDS011;6177;52.402;9.800;2023-08-01T04:51:24;1.52;;;0.55;;
12228;SDS011;6177;52.402;9.800;2023-08-01T04:53:49;1.75;;;0.52;;
12228;SDS011;6177;52.402;9.800;2023-08-01T04:56:15;0.40;;;0.40;;
12228;SDS011;6177;52.402;9.800;2023-08-01T04:58:40;0.50;;;0.50;;
12228;SDS011;6177;52.402;9.800;2023-08-01T05:01:06;0.70;;;0.70;;
12228;SDS011;6177;52.402;9.800;2023-08-01T05:03:31;0.57;;;0.57;;
12228;SDS011;6177;52.402;9.800;2023-08-01T05:05:57;1.38;;;0.50;;
12228;SDS011;6177;52.402;9.800;2023-08-01T05:08:23;0.82;;;0.82;;
12228;SDS011;6177;52.402;9.800;2023-08-01T05:10:48;0.77;;;0.77;;
12228;SDS011;6177;52.402;9.800;2023-08-01T05:13:14;0.60;;;0.60;;
12228;SDS011;6177;52.402;9.800;2023-08-01T05:15:39;1.85;;;0.88;;
12228;SDS011;6177;52.402;9.800;2023-08-01T05:18:05;0.73;;;0.73;;
12228;SDS011;6177;52.402;9.800;2023-08-01T05:20:30;2.10;;;0.70;;
12228;SDS011;6177;52.402;9.800;2023-08-01T05:22:57;0.70;;;0.70;;
12228;SDS011;6177;52.402;9.800;2023-08-01T05:25:23;0.73;;;0.73;;
12228;SDS011;6177;52.402;9.800;2023-08-01T05:27:48;0.60;;;0.60;;
12228;SDS011;6177;52.402;9.800;2023-08-01T05:30:14;0.50;;;0.50;;
12228;SDS011;6177;52.402;9.800;2023-08-01T05:32:40;0.68;;;0.68;;
12228;SDS011;6177;52.402;9.800;2023-08-01T05:35:06;1.80;;;0.95;;
12228;SDS011;6177;52.402;9.800;2023-08-01T05:37:32;0.75;;;0.75;;
12228;SDS011;6177;52.402;9.800;2023-08-01T05:39:57;0.82;;;0.70;;
12228;SDS011;6177;52.402;9.800;2023-08-01T05:42:23;0.82;;;0.82;;
12228;SDS011;6177;52.402;9.800;2023-08-01T05:44:48;2.15;;;0.70;;
12228;SDS011;6177;52.402;9.800;2023-08-01T05:47:14;0.80;;;0.80;;
12228;SDS011;6177;52.402;9.800;2023-08-01T05:49:39;1.17;;;0.80;;
12228;SDS011;6177;52.402;9.800;2023-08-01T05:52:06;2.30;;;0.75;;
12228;SDS011;6177;52.402;9.800;2023-08-01T05:54:32;0.88;;;0.88;;
12228;SDS011;6177;52.402;9.800;2023-08-01T05:56:58;1.05;;;0.95;;
12228;SDS011;6177;52.402;9.800;2023-08-01T05:59:23;1.27;;;1.05;;
12228;SDS011;6177;52.402;9.800;2023-08-01T06:01:49;1.20;;;1.20;;
12228;SDS011;6177;52.402;9.800;2023-08-01T06:04:15;1.15;;;1.10;;
12228;SDS011;6177;52.402;9.800;2023-08-01T06:06:40;2.00;;;1.38;;
12228;SDS011;6177;52.402;9.800;2023-08-01T06:09:06;1.10;;;1.10;;
12228;SDS011;6177;52.402;9.800;2023-08-01T06:11:31;1.40;;;1.40;;
12228;SDS011;6177;52.402;9.800;2023-08-01T06:13:58;1.85;;;1.75;;
12228;SDS011;6177;52.402;9.800;2023-08-01T06:16:24;1.60;;;1.50;;
12228;SDS011;6177;52.402;9.800;2023-08-01T06:18:50;1.67;;;1.63;;
12228;SDS011;6177;52.402;9.800;2023-08-01T06:21:15;2.08;;;1.80;;
12228;SDS011;6177;52.402;9.800;2023-08-01T06:23:41;2.03;;;1.90;;
12228;SDS011;6177;52.402;9.800;2023-08-01T06:26:06;3.10;;;2.20;;
12228;SDS011;6177;52.402;9.800;2023-08-01T06:28:32;2.28;;;2.22;;
12228;SDS011;6177;52.402;9.800;2023-08-01T06:30:57;2.50;;;2.30;;
12228;SDS011;6177;52.402;9.800;2023-08-01T06:33:23;2.03;;;1.92;;
12228;SDS011;6177;52.402;9.800;2023-08-01T06:35:49;1.67;;;1.58;;
12228;SDS011;6177;52.402;9.800;2023-08-01T06:38:14;2.00;;;1.90;;
12228;SDS011;6177;52.402;9.800;2023-08-01T06:40:40;2.60;;;2.15;;
12228;SDS011;6177;52.402;9.800;2023-08-01T06:43:05;2.20;;;1.98;;
12228;SDS011;6177;52.402;9.800;2023-08-01T06:45:31;3.17;;;2.78;;
12228;SDS011;6177;52.402;9.800;2023-08-01T06:47:56;2.58;;;2.33;;
12228;SDS011;6177;52.402;9.800;2023-08-01T06:50:22;3.45;;;2.13;;
12228;SDS011;6177;52.402;9.800;2023-08-01T06:52:48;2.70;;;2.50;;
12228;SDS011;6177;52.402;9.800;2023-08-01T06:55:13;2.38;;;2.17;;
12228;SDS011;6177;52.402;9.800;2023-08-01T06:57:39;3.20;;;2.90;;
12228;SDS011;6177;52.402;9.800;2023-08-01T07:00:05;3.00;;;2.70;;
12228;SDS011;6177;52.402;9.800;2023-08-01T07:02:31;3.38;;;3.20;;
12228;SDS011;6177;52.402;9.800;2023-08-01T07:04:56;2.63;;;2.53;;
12228;SDS011;6177;52.402;9.800;2023-08-01T07:07:22;2.78;;;2.60;;
12228;SDS011;6177;52.402;9.800;2023-08-01T07:09:47;3.50;;;3.22;;
12228;SDS011;6177;52.402;9.800;2023-08-01T07:12:13;2.85;;;2.65;;
12228;SDS011;6177;52.402;9.800;2023-08-01T07:14:39;2.72;;;2.53;;
12228;SDS011;6177;52.402;9.800;2023-08-01T07:17:05;3.80;;;3.28;;
12228;SDS011;6177;52.402;9.800;2023-08-01T07:19:30;3.67;;;3.38;;
12228;SDS011;6177;52.402;9.800;2023-08-01T07:21:56;4.57;;;3.80;;
12228;SDS011;6177;52.402;9.800;2023-08-01T07:24:21;5.90;;;3.42;;
12228;SDS011;6177;52.402;9.800;2023-08-01T07:26:46;4.28;;;3.35;;
12228;SDS011;6177;52.402;9.800;2023-08-01T07:29:12;4.32;;;3.47;;
12228;SDS011;6177;52.402;9.800;2023-08-01T07:31:41;5.40;;;4.25;;
12228;SDS011;6177;52.402;9.800;2023-08-01T07:34:07;5.70;;;4.90;;
12228;SDS011;6177;52.402;9.800;2023-08-01T07:36:32;4.43;;;4.05;;
12228;SDS011;6177;52.402;9.800;2023-08-01T07:38:58;4.72;;;4.25;;
12228;SDS011;6177;52.402;9.800;2023-08-01T07:41:24;4.88;;;4.43;;
12228;SDS011;6177;52.402;9.800;2023-08-01T07:43:49;4.97;;;4.47;;
12228;SDS011;6177;52.402;9.800;2023-08-01T07:46:14;4.97;;;4.40;;
12228;SDS011;6177;52.402;9.800;2023-08-01T07:48:40;5.07;;;4.78;;
12228;SDS011;6177;52.402;9.800;2023-08-01T07:51:06;5.25;;;4.75;;
12228;SDS011;6177;52.402;9.800;2023-08-01T07:53:33;5.05;;;4.60;;
12228;SDS011;6177;52.402;9.800;2023-08-01T07:55:59;4.60;;;4.30;;
12228;SDS011;6177;52.402;9.800;2023-08-01T07:58:27;6.05;;;4.05;;
12228;SDS011;6177;52.402;9.800;2023-08-01T08:00:53;4.93;;;4.45;;
12228;SDS011;6177;52.402;9.800;2023-08-01T08:03:19;4.45;;;4.05;;
12228;SDS011;6177;52.402;9.800;2023-08-01T08:05:48;4.43;;;4.07;;
12228;SDS011;6177;52.402;9.800;2023-08-01T08:08:14;6.40;;;4.57;;
12228;SDS011;6177;52.402;9.800;2023-08-01T08:10:40;4.72;;;4.43;;
12228;SDS011;6177;52.402;9.800;2023-08-01T08:13:05;6.28;;;3.88;;
12228;SDS011;6177;52.402;9.800;2023-08-01T08:15:31;4.25;;;3.45;;
12228;SDS011;6177;52.402;9.800;2023-08-01T08:18:01;4.88;;;4.35;;
12228;SDS011;6177;52.402;9.800;2023-08-01T08:20:29;4.88;;;3.95;;
12228;SDS011;6177;52.402;9.800;2023-08-01T08:22:55;4.45;;;4.05;;
12228;SDS011;6177;52.402;9.800;2023-08-01T08:25:21;3.80;;;3.55;;
12228;SDS011;6177;52.402;9.800;2023-08-01T08:27:48;3.40;;;3.17;;
12228;SDS011;6177;52.402;9.800;2023-08-01T08:30:14;7.43;;;4.03;;
12228;SDS011;6177;52.402;9.800;2023-08-01T08:32:39;4.10;;;3.75;;
12228;SDS011;6177;52.402;9.800;2023-08-01T08:35:05;4.05;;;3.60;;
12228;SDS011;6177;52.402;9.800;2023-08-01T08:37:31;3.97;;;3.63;;
12228;SDS011;6177;52.402;9.800;2023-08-01T08:39:56;3.58;;;2.95;;
12228;SDS011;6177;52.402;9.800;2023-08-01T08:42:22;3.53;;;3.22;;
12228;SDS011;6177;52.402;9.800;2023-08-01T08:44:49;3.60;;;3.30;;
12228;SDS011;6177;52.402;9.800;2023-08-01T08:47:16;4.53;;;3.45;;
12228;SDS011;6177;52.402;9.800;2023-08-01T08:49:43;5.78;;;3.53;;
12228;SDS011;6177;52.402;9.800;2023-08-01T08:52:10;3.22;;;2.88;;
12228;SDS011;6177;52.402;9.800;2023-08-01T08:54:36;3.08;;;2.85;;
12228;SDS011;6177;52.402;9.800;2023-08-01T08:57:04;4.32;;;3.17;;
12228;SDS011;6177;52.402;9.800;2023-08-01T08:59:31;2.15;;;2.05;;
12228;SDS011;6177;52.402;9.800;2023-08-01T09:01:57;2.75;;;2.33;;
12228;SDS011;6177;52.402;9.800;2023-08-01T09:04:23;2.55;;;2.28;;
12228;SDS011;6177;52.402;9.800;2023-08-01T09:06:49;3.92;;;2.67;;
12228;SDS011;6177;52.402;9.800;2023-08-01T09:09:15;2.40;;;2.20;;
12228;SDS011;6177;52.402;9.800;2023-08-01T09:11:48;2.70;;;2.47;;
12228;SDS011;6177;52.402;9.800;2023-08-01T09:14:14;2.58;;;2.38;;
12228;SDS011;6177;52.402;9.800;2023-08-01T09:16:40;2.67;;;2.42;;
12228;SDS011;6177;52.402;9.800;2023-08-01T09:19:06;2.58;;;2.35;;
12228;SDS011;6177;52.402;9.800;2023-08-01T09:21:33;2.38;;;2.17;;
12228;SDS011;6177;52.402;9.800;2023-08-01T09:24:07;2.17;;;2.08;;
12228;SDS011;6177;52.402;9.800;2023-08-01T09:26:36;4.43;;;1.98;;
12228;SDS011;6177;52.402;9.800;2023-08-01T09:29:02;2.38;;;1.95;;
12228;SDS011;6177;52.402;9.800;2023-08-01T09:31:28;2.40;;;2.30;;
12228;SDS011;6177;52.402;9.800;2023-08-01T09:33:54;3.00;;;1.92;;
12228;SDS011;6177;52.402;9.800;2023-08-01T09:36:20;2.13;;;2.00;;
12228;SDS011;6177;52.402;9.800;2023-08-01T09:38:47;1.70;;;1.60;;
12228;SDS011;6177;52.402;9.800;2023-08-01T09:41:19;2.10;;;1.90;;
12228;SDS011;6177;52.402;9.800;2023-08-01T09:43:45;1.77;;;1.67;;
12228;SDS011;6177;52.402;9.800;2023-08-01T09:46:12;2.58;;;1.75;;
12228;SDS011;6177;52.402;9.800;2023-08-01T09:48:37;2.25;;;1.77;;
12228;SDS011;6177;52.402;9.800;2023-08-01T09:51:06;1.48;;;1.42;;
12228;SDS011;6177;52.402;9.800;2023-08-01T09:53:35;2.35;;;1.95;;
12228;SDS011;6177;52.402;9.800;2023-08-01T09:56:02;1.60;;;1.52;;
12228;SDS011;6177;52.402;9.800;2023-08-01T09:58:31;2.25;;;2.03;;
12228;SDS011;6177;52.402;9.800;2023-08-01T10:00:58;1.65;;;1.55;;
12228;SDS011;6177;52.402;9.800;2023-08-01T10:03:25;2.05;;;1.70;;
12228;SDS011;6177;52.402;9.800;2023-08-01T10:05:52;2.38;;;1.73;;
12228;SDS011;6177;52.402;9.800;2023-08-01T10:08:19;1.45;;;1.35;;
12228;SDS011;6177;52.402;9.800;2023-08-01T10:10:46;1.40;;;1.30;;
12228;SDS011;6177;52.402;9.800;2023-08-01T10:13:12;1.63;;;1.50;;
12228;SDS011;6177;52.402;9.800;2023-08-01T10:15:38;1.15;;;1.15;;
12228;SDS011;6177;52.402;9.800;2023-08-01T10:18:04;1.45;;;1.45;;
12228;SDS011;6177;52.402;9.800;2023-08-01T10:20:30;2.00;;;1.90;;
12228;SDS011;6177;52.402;9.800;2023-08-01T10:22:56;1.48;;;1.20;;
12228;SDS011;6177;52.402;9.800;2023-08-01T10:25:21;1.38;;;1.38;;
12228;SDS011;6177;52.402;9.800;2023-08-01T10:27:57;1.13;;;1.10;;
12228;SDS011;6177;52.402;9.800;2023-08-01T10:30:27;3.65;;;1.27;;
12228;SDS011;6177;52.402;9.800;2023-08-01T10:32:57;1.70;;;1.38;;
12228;SDS011;6177;52.402;9.800;2023-08-01T10:35:31;1.33;;;1.33;;
12228;SDS011;6177;52.402;9.800;2023-08-01T10:38:09;1.45;;;1.35;;
12228;SDS011;6177;52.402;9.800;2023-08-01T10:40:40;1.77;;;1.20;;
12228;SDS011;6177;52.402;9.800;2023-08-01T10:43:20;1.58;;;1.48;;
12228;SDS011;6177;52.402;9.800;2023-08-01T10:45:46;2.38;;;1.42;;
12228;SDS011;6177;52.402;9.800;2023-08-01T10:48:12;1.52;;;1.40;;
12228;SDS011;6177;52.402;9.800;2023-08-01T10:50:39;3.58;;;1.92;;
12228;SDS011;6177;52.402;9.800;2023-08-01T10:53:06;3.17;;;1.73;;
12228;SDS011;6177;52.402;9.800;2023-08-01T10:55:43;2.65;;;2.22;;
12228;SDS011;6177;52.402;9.800;2023-08-01T10:58:12;2.92;;;2.60;;
12228;SDS011;6177;52.402;9.800;2023-08-01T11:00:38;3.00;;;2.30;;
12228;SDS011;6177;52.402;9.800;2023-08-01T11:03:03;3.03;;;2.20;;
12228;SDS011;6177;52.402;9.800;2023-08-01T11:05:29;2.75;;;1.83;;
12228;SDS011;6177;52.402;9.800;2023-08-01T11:07:55;3.88;;;2.38;;
12228;SDS011;6177;52.402;9.800;2023-08-01T11:10:22;2.42;;;1.77;;
12228;SDS011;6177;52.402;9.800;2023-08-01T11:12:48;2.75;;;2.55;;
12228;SDS011;6177;52.402;9.800;2023-08-01T11:15:14;2.67;;;2.47;;
12228;SDS011;6177;52.402;9.800;2023-08-01T11:17:40;3.55;;;2.03;;
12228;SDS011;6177;52.402;9.800;2023-08-01T11:20:09;3.38;;;1.77;;
12228;SDS011;6177;52.402;9.800;2023-08-01T11:22:36;2.70;;;1.50;;
12228;SDS011;6177;52.402;9.800;2023-08-01T11:25:02;1.48;;;1.38;;
12228;SDS011;6177;52.402;9.800;2023-08-01T11:27:28;1.67;;;1.58;;
12228;SDS011;6177;52.402;9.800;2023-08-01T11:29:54;1.90;;;1.75;;
12228;SDS011;6177;52.402;9.800;2023-08-01T11:32:20;4.03;;;1.83;;
12228;SDS011;6177;52.402;9.800;2023-08-01T11:34:46;1.70;;;1.27;;
12228;SDS011;6177;52.402;9.800;2023-08-01T11:37:13;1.55;;;1.52;;
12228;SDS011;6177;52.402;9.800;2023-08-01T11:39:39;1.73;;;1.30;;
12228;SDS011;6177;52.402;9.800;2023-08-01T11:42:05;2.47;;;1.17;;
12228;SDS011;6177;52.402;9.800;2023-08-01T11:44:31;1.33;;;0.90;;
12228;SDS011;6177;52.402;9.800;2023-08-01T11:46:57;1.52;;;1.42;;
12228;SDS011;6177;52.402;9.800;2023-08-01T11:49:23;2.83;;;1.55;;
12228;SDS011;6177;52.402;9.800;2023-08-01T11:51:48;2.08;;;1.90;;
12228;SDS011;6177;52.402;9.800;2023-08-01T11:54:14;2.45;;;2.25;;
12228;SDS011;6177;52.402;9.800;2023-08-01T11:56:41;1.50;;;1.40;;
12228;SDS011;6177;52.402;9.800;2023-08-01T11:59:11;1.48;;;1.20;;
12228;SDS011;6177;52.402;9.800;2023-08-01T12:01:38;1.20;;;1.20;;
12228;SDS011;6177;52.402;9.800;2023-08-01T12:04:04;1.92;;;1.35;;
12228;SDS011;6177;52.402;9.800;2023-08-01T12:06:31;1.65;;;1.23;;
12228;SDS011;6177;52.402;9.800;2023-08-01T12:09:05;1.13;;;1.10;;
12228;SDS011;6177;52.402;9.800;2023-08-01T12:11:32;1.42;;;1.38;;
12228;SDS011;6177;52.402;9.800;2023-08-01T12:14:10;1.50;;;1.40;;
12228;SDS011;6177;52.402;9.800;2023-08-01T12:16:40;1.48;;;1.40;;
12228;SDS011;6177;52.402;9.800;2023-08-01T12:19:07;1.02;;;1.02;;
12228;SDS011;6177;52.402;9.800;2023-08-01T12:21:34;1.23;;;1.17;;
12228;SDS011;6177;52.402;9.800;2023-08-01T12:24:00;1.23;;;1.23;;
12228;SDS011;6177;52.402;9.800;2023-08-01T12:26:25;1.95;;;1.75;;
12228;SDS011;6177;52.402;9.800;2023-08-01T12:28:51;3.20;;;1.63;;
12228;SDS011;6177;52.402;9.800;2023-08-01T12:31:20;1.70;;;1.60;;
12228;SDS011;6177;52.402;9.800;2023-08-01T12:33:47;2.22;;;2.08;;
12228;SDS011;6177;52.402;9.800;2023-08-01T12:36:13;1.40;;;1.40;;
12228;SDS011;6177;52.402;9.800;2023-08-01T12:38:39;1.30;;;1.30;;
12228;SDS011;6177;52.402;9.800;2023-08-01T12:41:05;0.85;;;0.85;;
12228;SDS011;6177;52.402;9.800;2023-08-01T12:43:31;2.17;;;1.48;;
12228;SDS011;6177;52.402;9.800;2023-08-01T12:45:56;2.33;;;1.10;;
12228;SDS011;6177;52.402;9.800;2023-08-01T12:48:23;2.17;;;1.58;;
12228;SDS011;6177;52.402;9.800;2023-08-01T12:50:49;0.98;;;0.98;;
12228;SDS011;6177;52.402;9.800;2023-08-01T12:53:15;1.70;;;1.60;;
12228;SDS011;6177;52.402;9.800;2023-08-01T12:55:44;2.67;;;1.60;;
12228;SDS011;6177;52.402;9.800;2023-08-01T12:58:10;1.80;;;1.70;;
12228;SDS011;6177;52.402;9.800;2023-08-01T13:00:36;1.48;;;1.40;;
12228;SDS011;6177;52.402;9.800;2023-08-01T13:03:01;2.03;;;1.48;;
12228;SDS011;6177;52.402;9.800;2023-08-01T13:05:27;1.33;;;1.23;;
12228;SDS011;6177;52.402;9.800;2023-08-01T13:07:52;1.67;;;1.40;;
12228;SDS011;6177;52.402;9.800;2023-08-01T13:10:18;1.20;;;1.10;;
12228;SDS011;6177;52.402;9.800;2023-08-01T13:12:43;2.33;;;1.88;;
12228;SDS011;6177;52.402;9.800;2023-08-01T13:15:09;2.00;;;1.90;;
12228;SDS011;6177;52.402;9.800;2023-08-01T13:17:34;1.88;;;1.63;;
12228;SDS011;6177;52.402;9.800;2023-08-01T13:20:00;1.83;;;1.73;;
12228;SDS011;6177;52.402;9.800;2023-08-01T13:22:26;2.05;;;1.88;;
12228;SDS011;6177;52.402;9.800;2023-08-01T13:24:51;1.95;;;1.85;;
12228;SDS011;6177;52.402;9.800;2023-08-01T13:27:17;2.65;;;2.08;;
12228;SDS011;6177;52.402;9.800;2023-08-01T13:29:42;3.00;;;2.20;;
12228;SDS011;6177;52.402;9.800;2023-08-01T13:32:08;2.97;;;2.17;;
12228;SDS011;6177;52.402;9.800;2023-08-01T13:34:33;2.30;;;1.92;;
12228;SDS011;6177;52.402;9.800;2023-08-01T13:36:58;3.40;;;2.03;;
12228;SDS011;6177;52.402;9.800;2023-08-01T13:39:24;2.60;;;1.80;;
12228;SDS011;6177;52.402;9.800;2023-08-01T13:41:50;3.38;;;1.40;;
12228;SDS011;6177;52.402;9.800;2023-08-01T13:44:15;1.90;;;1.80;;
12228;SDS011;6177;52.402;9.800;2023-08-01T13:46:41;1.55;;;1.55;;
12228;SDS011;6177;52.402;9.800;2023-08-01T13:49:06;1.55;;;1.48;;
12228;SDS011;6177;52.402;9.800;2023-08-01T13:51:32;1.20;;;1.20;;
12228;SDS011;6177;52.402;9.800;2023-08-01T13:53:58;1.25;;;1.17;;
12228;SDS011;6177;52.402;9.800;2023-08-01T13:56:24;1.02;;;1.02;;
12228;SDS011;6177;52.402;9.800;2023-08-01T13:58:50;1.08;;;1.08;;
12228;SDS011;6177;52.402;9.800;2023-08-01T14:01:16;0.98;;;0.90;;
12228;SDS011;6177;52.402;9.800;2023-08-01T14:03:43;0.70;;;0.70;;
12228;SDS011;6177;52.402;9.800;2023-08-01T14:06:13;1.90;;;1.00;;
12228;SDS011;6177;52.402;9.800;2023-08-01T14:08:39;1.42;;;1.33;;
12228;SDS011;6177;52.402;9.800;2023-08-01T14:11:06;1.05;;;0.98;;
12228;SDS011;6177;52.402;9.800;2023-08-01T14:13:33;0.90;;;0.90;;
12228;SDS011;6177;52.402;9.800;2023-08-01T14:15:59;1.48;;;1.00;;
12228;SDS011;6177;52.402;9.800;2023-08-01T14:18:25;1.33;;;1.10;;
12228;SDS011;6177;52.402;9.800;2023-08-01T14:20:51;1.30;;;1.05;;
12228;SDS011;6177;52.402;9.800;2023-08-01T14:23:18;1.00;;;0.88;;
12228;SDS011;6177;52.402;9.800;2023-08-01T14:25:44;1.25;;;1.00;;
12228;SDS011;6177;52.402;9.800;2023-08-01T14:28:09;0.90;;;0.90;;
12228;SDS011;6177;52.402;9.800;2023-08-01T14:30:36;0.93;;;0.70;;
12228;SDS011;6177;52.402;9.800;2023-08-01T14:33:06;1.00;;;0.90;;
12228;SDS011;6177;52.402;9.800;2023-08-01T14:35:33;1.20;;;1.10;;
12228;SDS011;6177;52.402;9.800;2023-08-01T14:37:59;1.15;;;1.00;;
12228;SDS011;6177;52.402;9.800;2023-08-01T14:40:25;0.80;;;0.80;;
12228;SDS011;6177;52.402;9.800;2023-08-01T14:42:51;1.80;;;1.00;;
12228;SDS011;6177;52.402;9.800;2023-08-01T14:45:17;2.55;;;0.98;;
12228;SDS011;6177;52.402;9.800;2023-08-01T14:47:43;1.00;;;0.77;;
12228;SDS011;6177;52.402;9.800;2023-08-01T14:50:12;0.68;;;0.65;;
12228;SDS011;6177;52.402;9.800;2023-08-01T14:52:38;0.60;;;0.60;;
12228;SDS011;6177;52.402;9.800;2023-08-01T14:55:05;1.60;;;1.00;;